Time;durP1;ratioP1;P1;durP2;ratioP2;P2;SDS_P1;SDS_P2;PMS_P1;PMS_P2;Temp;Humidity;BMP_temperature;BMP_pressure;BME280_temperature;BME280_humidity;BME280_pressure;Samples;Min_cycle;Max_cycle;Signal;HPM_P1;HPM_P2
2023/10/14 00:02:40;;;;;;;11.13;5.63;;;21.10;99.90;;;;;;5004391;28;20053;-84
2023/10/14 00:04:40;;;;;;;13.07;5.18;;;21.10;99.90;;;;;;4996359;28;20153;-86
2023/10/14 00:07:09;;;;;;;15.00;6.20;;;21.10;99.90;;;;;;4988403;28;20042;-84
2023/10/14 00:09:43;;;;;;;10.60;5.55;;;21.10;99.90;;;;;;4993859;28;20034;-84
2023/10/14 00:12:15;;;;;;;12.18;5.70;;;21.10;99.90;;;;;;5045051;23;20105;-83
2023/10/14 00:17:18;;;;;;;14.70;5.05;;;21.30;99.90;;;;;;4996276;28;20039;-83
2023/10/14 00:19:54;;;;;;;13.13;5.20;;;21.30;99.90;;;;;;4987417;28;20037;-85
2023/10/14 00:22:20;;;;;;;11.52;5.07;;;21.30;99.90;;;;;;4972262;28;21021;-81
2023/10/14 00:24:48;;;;;;;9.85;4.00;;;21.40;99.90;;;;;;4980164;28;20104;-83
2023/10/14 00:27:15;;;;;;;16.88;4.32;;;21.50;99.90;;;;;;4986714;28;20030;-81
2023/10/14 00:29:43;;;;;;;13.98;3.92;;;21.50;99.90;;;;;;4979026;28;20121;-82
2023/10/14 00:32:10;;;;;;;17.98;4.55;;;21.60;99.90;;;;;;4970884;28;20055;-82
2023/10/14 00:34:35;;;;;;;27.60;5.75;;;21.70;99.90;;;;;;4980814;28;20077;-83
2023/10/14 00:37:01;;;;;;;20.00;4.68;;;21.80;99.90;;;;;;4990785;28;20046;-81
2023/10/14 00:39:32;;;;;;;24.75;4.70;;;21.80;99.90;;;;;;4993988;28;20062;-82
2023/10/14 00:41:58;;;;;;;22.20;4.82;;;21.70;99.90;;;;;;4975227;28;20239;-81
2023/10/14 00:44:25;;;;;;;21.27;5.30;;;21.70;99.90;;;;;;4987159;28;20030;-82
2023/10/14 00:46:53;;;;;;;20.35;5.22;;;21.70;99.90;;;;;;4975564;28;20027;-83
2023/10/14 00:49:22;;;;;;;19.38;4.55;;;21.60;99.90;;;;;;4995472;28;20045;-81
2023/10/14 00:51:51;;;;;;;15.90;4.95;;;21.60;99.90;;;;;;4986851;28;20037;-82
2023/10/14 00:55:12;;;;;;;18.40;5.03;;;21.50;99.90;;;;;;4975132;28;20054;-82
2023/10/14 00:57:19;;;;;;;16.25;5.30;;;21.50;99.90;;;;;;4980666;28;20538;-83
2023/10/14 00:59:50;;;;;;;19.33;5.38;;;21.50;99.90;;;;;;4976438;28;20022;-82
2023/10/14 01:02:29;;;;;;;19.58;4.85;;;21.40;99.90;;;;;;4977719;28;20015;-82
2023/10/14 01:04:55;;;;;;;15.13;4.93;;;21.30;99.90;;;;;;5001091;28;20050;-81
2023/10/14 01:07:21;;;;;;;14.60;5.00;;;21.30;99.90;;;;;;4993348;28;20022;-83
2023/10/14 01:14:58;;;;;;;17.40;5.40;;;21.40;99.90;;;;;;4996358;28;20926;-83
2023/10/14 01:17:28;;;;;;;19.25;6.18;;;21.40;99.90;;;;;;4988479;28;20672;-83
2023/10/14 01:19:55;;;;;;;14.70;5.50;;;21.30;99.90;;;;;;4968407;28;20082;-81
2023/10/14 01:22:21;;;;;;;17.10;5.95;;;21.30;99.90;;;;;;4980849;28;20046;-83
2023/10/14 01:24:48;;;;;;;11.38;5.65;;;21.40;99.90;;;;;;4969934;28;20065;-83
2023/10/14 01:27:16;;;;;;;13.85;5.80;;;21.30;99.90;;;;;;4974770;28;20625;-82
2023/10/14 01:29:42;;;;;;;15.43;5.40;;;21.30;99.90;;;;;;4971577;28;20045;-81
2023/10/14 01:32:23;;;;;;;13.85;5.80;;;21.30;99.90;;;;;;4988335;28;20030;-81
2023/10/14 01:35:00;;;;;;;12.02;5.50;;;21.30;99.90;;;;;;4977183;28;20030;-82
2023/10/14 01:37:34;;;;;;;15.48;5.30;;;21.30;99.90;;;;;;4977266;28;20030;-82
2023/10/14 01:40:16;;;;;;;17.75;5.65;;;21.30;99.90;;;;;;4978695;28;20042;-83
2023/10/14 01:42:42;;;;;;;19.15;5.65;;;21.30;99.90;;;;;;4986892;28;20066;-82
2023/10/14 01:45:08;;;;;;;17.27;5.50;;;21.20;99.90;;;;;;4994534;28;20031;-82
2023/10/14 01:47:42;;;;;;;15.70;5.53;;;21.20;99.90;;;;;;5006995;28;20063;-84
2023/10/14 01:50:12;;;;;;;13.23;5.38;;;21.20;99.90;;;;;;4991724;28;20034;-82
2023/10/14 01:52:39;;;;;;;21.70;5.80;;;21.10;99.90;;;;;;4979151;28;20121;-83
2023/10/14 01:55:05;;;;;;;15.13;5.70;;;21.20;99.90;;;;;;4975176;28;20038;-82
2023/10/14 01:57:31;;;;;;;16.67;5.97;;;21.10;99.90;;;;;;4971849;28;20030;-83
2023/10/14 01:59:57;;;;;;;12.48;5.50;;;21.00;99.90;;;;;;4977167;28;20145;-82
2023/10/14 02:02:23;;;;;;;17.95;5.75;;;21.00;99.90;;;;;;4968304;28;20057;-81
2023/10/14 02:04:56;;;;;;;12.68;5.57;;;21.10;99.90;;;;;;4979221;28;20030;-81
2023/10/14 02:07:22;;;;;;;14.75;5.53;;;21.00;99.90;;;;;;4972967;28;20022;-82
2023/10/14 02:09:55;;;;;;;12.95;5.78;;;21.00;99.90;;;;;;4968656;28;20475;-80
2023/10/14 02:12:24;;;;;;;18.73;6.40;;;21.00;99.90;;;;;;4969634;28;20121;-82
2023/10/14 02:14:57;;;;;;;13.20;5.50;;;21.00;99.90;;;;;;4984288;28;20026;-81
2023/10/14 02:17:24;;;;;;;15.95;6.40;;;20.90;99.90;;;;;;4972037;28;20069;-83
2023/10/14 02:19:51;;;;;;;19.20;6.28;;;20.90;99.90;;;;;;4968110;28;20666;-83
2023/10/14 02:22:22;;;;;;;18.25;5.80;;;20.90;99.90;;;;;;4960686;28;20042;-82
2023/10/14 02:24:48;;;;;;;14.55;5.53;;;21.00;99.90;;;;;;4963553;28;20034;-81
2023/10/14 02:27:14;;;;;;;16.38;5.30;;;21.00;99.90;;;;;;4968278;28;20022;-81
2023/10/14 02:29:48;;;;;;;17.05;5.65;;;21.00;99.90;;;;;;4979908;28;20041;-80
2023/10/14 02:32:15;;;;;;;11.30;5.47;;;20.90;99.90;;;;;;4967984;28;20030;-82
2023/10/14 02:34:45;;;;;;;9.38;5.05;;;20.90;99.90;;;;;;4967458;28;20069;-84
2023/10/14 02:37:13;;;;;;;12.07;5.18;;;20.90;99.90;;;;;;4986713;28;20030;-82
2023/10/14 02:39:42;;;;;;;10.68;4.03;;;20.90;99.90;;;;;;4970492;28;20037;-84
2023/10/14 02:42:09;;;;;;;10.32;3.83;;;20.80;99.90;;;;;;4975089;28;20043;-82
2023/10/14 02:44:45;;;;;;;9.95;3.58;;;20.70;99.90;;;;;;4974794;28;20061;-81
2023/10/14 02:47:12;;;;;;;9.50;2.88;;;20.70;99.90;;;;;;4973112;28;20026;-81
2023/10/14 02:49:41;;;;;;;12.27;3.42;;;20.50;99.90;;;;;;4989334;28;20034;-82
2023/10/14 02:52:12;;;;;;;9.97;2.57;;;20.50;99.90;;;;;;4983107;28;20525;-82
2023/10/14 02:54:44;;;;;;;8.20;1.92;;;20.60;99.90;;;;;;4973552;28;20321;-84
2023/10/14 02:57:13;;;;;;;6.25;2.08;;;20.60;99.90;;;;;;4966734;28;20030;-83
2023/10/14 03:07:25;;;;;;;4.63;1.50;;;20.30;99.90;;;;;;4984845;28;20360;-83
2023/10/14 03:09:52;;;;;;;6.13;1.70;;;20.30;99.90;;;;;;4986426;28;20034;-81
2023/10/14 03:12:21;;;;;;;6.25;1.63;;;20.20;99.90;;;;;;4993188;28;20030;-82
2023/10/14 03:14:52;;;;;;;6.35;1.60;;;20.30;99.90;;;;;;4974030;28;20434;-83
2023/10/14 03:17:39;;;;;;;4.03;1.58;;;20.20;99.90;;;;;;4990343;28;20038;-82
2023/10/14 03:22:53;;;;;;;6.82;1.38;;;20.20;99.90;;;;;;4986280;28;20044;-84
2023/10/14 03:25:24;;;;;;;4.03;1.10;;;20.10;99.90;;;;;;4986336;28;20134;-83
2023/10/14 03:27:58;;;;;;;7.05;1.33;;;20.10;99.90;;;;;;4984080;28;20015;-85
2023/10/14 03:30:23;;;;;;;6.10;1.23;;;20.10;99.90;;;;;;4997776;28;20130;-83
2023/10/14 03:32:52;;;;;;;4.85;1.00;;;20.00;99.90;;;;;;4997404;28;20385;-86
2023/10/14 03:35:21;;;;;;;5.50;0.93;;;19.90;99.90;;;;;;5002712;28;20067;-85
2023/10/14 03:37:53;;;;;;;3.35;0.93;;;19.80;99.90;;;;;;4990917;28;20023;-85
2023/10/14 03:43:07;;;;;;;2.90;0.90;;;19.80;99.90;;;;;;5010747;28;20038;-85
2023/10/14 03:45:33;;;;;;;2.58;0.63;;;19.80;99.90;;;;;;5000598;28;20506;-83
2023/10/14 03:48:00;;;;;;;4.82;1.00;;;19.80;99.90;;;;;;4980439;28;20027;-85
2023/10/14 03:50:26;;;;;;;3.10;0.73;;;19.80;99.90;;;;;;4998893;28;20109;-84
2023/10/14 03:52:55;;;;;;;1.95;0.57;;;19.80;99.90;;;;;;4996219;28;20097;-83
2023/10/14 03:55:24;;;;;;;3.77;0.70;;;19.60;99.90;;;;;;4980542;28;20023;-84
2023/10/14 03:57:53;;;;;;;4.20;0.73;;;19.70;99.90;;;;;;4995385;28;20022;-83
2023/10/14 04:00:36;;;;;;;3.47;0.50;;;19.60;99.90;;;;;;4986736;28;20122;-85
2023/10/14 04:03:12;;;;;;;2.33;0.77;;;19.60;99.90;;;;;;4987608;28;20030;-86
2023/10/14 04:05:51;;;;;;;5.88;0.90;;;19.60;99.90;;;;;;4984014;28;20045;-83
2023/10/14 04:08:24;;;;;;;4.82;0.80;;;19.60;99.90;;;;;;4990341;28;20041;-85
2023/10/14 04:10:55;;;;;;;3.88;0.95;;;19.60;99.90;;;;;;4990342;28;20039;-84
2023/10/14 04:13:21;;;;;;;4.57;0.73;;;19.50;99.90;;;;;;4986862;28;20014;-84
2023/10/14 04:15:53;;;;;;;3.72;0.80;;;19.40;99.90;;;;;;4985024;28;20026;-84
2023/10/14 04:18:24;;;;;;;4.85;0.82;;;19.30;99.90;;;;;;4970455;28;20030;-83
2023/10/14 04:21:35;;;;;;;3.38;1.10;;;19.20;99.90;;;;;;4977890;28;20038;-85
2023/10/14 04:24:12;;;;;;;3.10;0.60;;;19.20;99.90;;;;;;4988914;28;20513;-83
2023/10/14 04:26:41;;;;;;;2.40;0.60;;;19.00;99.90;;;;;;4975486;28;20025;-83
2023/10/14 04:29:34;;;;;;;4.15;0.90;;;19.00;99.90;;;;;;4980408;28;20022;-84
2023/10/14 04:31:56;;;;;;;4.22;0.80;;;18.90;99.90;;;;;;4990200;28;20537;-83
2023/10/14 04:34:22;;;;;;;5.43;1.17;;;18.80;99.90;;;;;;4978484;28;20030;-83
2023/10/14 04:36:54;;;;;;;7.30;0.90;;;18.60;99.90;;;;;;4976260;28;20101;-82
2023/10/14 04:39:26;;;;;;;4.32;0.90;;;18.60;99.90;;;;;;4992366;28;20026;-81
2023/10/14 04:41:55;;;;;;;4.07;0.90;;;18.50;99.90;;;;;;4991368;28;20038;-81
2023/10/14 04:44:26;;;;;;;4.80;0.90;;;18.40;99.90;;;;;;4976551;28;20095;-82
2023/10/14 04:46:55;;;;;;;2.97;0.93;;;18.40;99.90;;;;;;4974918;28;20034;-81
2023/10/14 04:49:42;;;;;;;5.53;1.13;;;18.40;99.90;;;;;;4981198;28;20094;-81
2023/10/14 04:52:08;;;;;;;3.92;1.20;;;18.30;99.90;;;;;;4986415;28;20022;-83
2023/10/14 04:54:34;;;;;;;3.70;1.23;;;18.30;99.90;;;;;;4998433;28;20033;-83
2023/10/14 04:57:22;;;;;;;5.68;1.40;;;18.20;99.90;;;;;;4977053;28;20038;-83
2023/10/14 04:59:53;;;;;;;4.43;1.52;;;18.10;99.90;;;;;;4997969;28;20014;-84
2023/10/14 05:02:21;;;;;;;5.07;1.40;;;18.00;99.90;;;;;;4990622;28;20446;-83
2023/10/14 05:04:59;;;;;;;4.25;1.60;;;18.00;99.90;;;;;;4987195;28;20042;-83
2023/10/14 05:07:58;;;;;;;5.07;1.90;;;18.00;99.90;;;;;;4997435;28;20380;-83
2023/10/14 05:10:51;;;;;;;4.35;1.58;;;18.00;99.90;;;;;;5009707;28;20077;-82
2023/10/14 05:13:38;;;;;;;5.05;1.75;;;17.90;99.90;;;;;;4998516;28;20021;-83
2023/10/14 05:16:50;;;;;;;6.13;1.75;;;17.90;99.90;;;;;;4996162;28;20026;-84
2023/10/14 05:19:23;;;;;;;5.88;1.30;;;18.10;99.90;;;;;;4979709;28;20033;-83
2023/10/14 05:21:55;;;;;;;5.43;1.55;;;17.70;99.90;;;;;;4976845;28;20406;-84
2023/10/14 05:24:23;;;;;;;10.32;1.50;;;17.50;99.90;;;;;;4977974;28;20029;-83
2023/10/14 05:26:58;;;;;;;8.07;1.80;;;17.50;99.90;;;;;;4976367;28;20034;-80
2023/10/14 05:29:28;;;;;;;6.15;1.80;;;17.50;99.90;;;;;;4987211;28;20027;-80
2023/10/14 05:32:01;;;;;;;5.78;1.30;;;17.30;99.90;;;;;;4975348;28;20467;-81
2023/10/14 05:34:29;;;;;;;4.35;1.00;;;17.30;99.90;;;;;;4974047;28;20042;-80
2023/10/14 05:36:58;;;;;;;4.00;1.00;;;17.20;99.90;;;;;;4990689;28;20034;-82
2023/10/14 05:39:24;;;;;;;2.60;1.00;;;17.30;99.90;;;;;;4976528;28;20031;-83
2023/10/14 05:41:58;;;;;;;4.55;1.13;;;17.20;99.90;;;;;;4968753;28;20149;-82
2023/10/14 05:44:27;;;;;;;4.68;1.40;;;17.20;99.90;;;;;;4974570;28;21284;-83
2023/10/14 05:46:54;;;;;;;3.17;0.90;;;17.30;99.90;;;;;;4970195;28;20098;-83
2023/10/14 05:49:24;;;;;;;6.03;1.85;;;17.10;99.90;;;;;;4975209;28;20038;-83
2023/10/14 05:51:50;;;;;;;;;;;17.30;99.90;;;;;;4976627;28;20034;-83
2023/10/14 05:54:16;;;;;;;1.92;0.73;;;17.30;99.90;;;;;;4976491;28;20258;-83
2023/10/14 05:56:43;;;;;;;2.28;0.80;;;17.30;99.90;;;;;;4968746;28;20034;-83
2023/10/14 05:59:10;;;;;;;4.05;1.30;;;17.30;99.90;;;;;;4976473;28;20043;-83
2023/10/14 06:01:38;;;;;;;3.03;0.85;;;17.20;99.90;;;;;;4969999;28;20038;-83
2023/10/14 06:04:05;;;;;;;2.67;0.85;;;17.20;99.90;;;;;;4971822;28;20039;-80
2023/10/14 06:06:34;;;;;;;2.70;1.25;;;17.20;99.90;;;;;;4968595;28;20499;-83
2023/10/14 06:09:08;;;;;;;1.83;0.73;;;17.00;99.90;;;;;;4971764;28;20023;-85
2023/10/14 06:11:33;;;;;;;1.88;0.88;;;17.10;99.90;;;;;;4972896;28;20216;-84
2023/10/14 06:14:02;;;;;;;3.63;0.77;;;17.10;99.90;;;;;;4980575;28;20053;-83
2023/10/14 06:16:31;;;;;;;3.47;0.90;;;17.10;99.90;;;;;;4973930;28;20054;-83
2023/10/14 06:18:58;;;;;;;3.97;0.95;;;17.10;99.90;;;;;;4989653;28;20102;-80
2023/10/14 06:21:33;;;;;;;2.13;0.77;;;17.00;99.90;;;;;;4969067;28;20041;-82
2023/10/14 06:24:00;;;;;;;3.72;0.85;;;17.00;99.90;;;;;;4976977;28;20026;-82
2023/10/14 06:26:27;;;;;;;2.22;1.05;;;16.90;99.90;;;;;;4967891;28;20176;-83
2023/10/14 06:28:56;;;;;;;3.80;1.20;;;16.90;99.90;;;;;;4979654;28;20027;-83
2023/10/14 06:31:23;;;;;;;1.95;1.05;;;16.90;99.90;;;;;;4967975;28;20044;-82
2023/10/14 06:33:48;;;;;;;4.25;1.20;;;16.60;99.90;;;;;;4969871;28;20453;-82
2023/10/14 06:36:14;;;;;;;3.42;1.10;;;16.90;99.90;;;;;;4974586;28;20026;-82
2023/10/14 06:38:44;;;;;;;3.42;0.93;;;17.00;99.90;;;;;;4979080;28;20039;-82
2023/10/14 06:41:16;;;;;;;2.30;1.00;;;17.00;99.90;;;;;;4979862;28;20026;-82
2023/10/14 06:43:43;;;;;;;3.58;0.90;;;17.10;99.90;;;;;;4978504;28;20290;-82
2023/10/14 06:46:11;;;;;;;5.30;1.48;;;17.10;99.90;;;;;;4998253;28;20042;-82
2023/10/14 06:48:41;;;;;;;1.67;1.05;;;17.20;99.90;;;;;;4990431;28;20014;-81
2023/10/14 06:51:31;;;;;;;3.45;1.15;;;17.10;99.90;;;;;;4992372;28;20014;-81
2023/10/14 06:53:57;;;;;;;2.17;0.98;;;17.10;99.90;;;;;;5004065;28;20030;-80
2023/10/14 06:56:27;;;;;;;2.65;1.10;;;17.20;99.90;;;;;;5002296;28;20034;-82
2023/10/14 06:58:52;;;;;;;2.73;0.80;;;17.20;99.90;;;;;;4974200;28;20094;-82
2023/10/14 07:01:18;;;;;;;2.50;0.60;;;17.30;99.90;;;;;;4970065;28;20177;-81
2023/10/14 07:03:46;;;;;;;0.88;0.60;;;17.40;99.90;;;;;;4966143;28;20039;-81
2023/10/14 07:06:11;;;;;;;0.47;0.40;;;17.50;99.90;;;;;;4969533;28;20043;-82
2023/10/14 07:08:39;;;;;;;2.47;0.73;;;17.40;99.90;;;;;;4980924;28;20034;-82
2023/10/14 07:11:06;;;;;;;1.70;0.40;;;17.30;99.90;;;;;;4965650;28;20042;-81
2023/10/14 07:13:31;;;;;;;0.70;0.30;;;17.30;99.90;;;;;;4977725;28;20014;-80
2023/10/14 07:16:05;;;;;;;0.55;0.50;;;17.40;99.90;;;;;;4986356;28;20041;-80
2023/10/14 07:18:35;;;;;;;0.82;0.45;;;17.40;99.90;;;;;;4988383;28;20094;-81
2023/10/14 07:21:02;;;;;;;0.35;0.35;;;17.30;99.90;;;;;;4967091;28;20502;-81
2023/10/14 07:23:29;;;;;;;0.68;0.40;;;17.20;99.90;;;;;;4978519;28;20097;-81
2023/10/14 07:25:57;;;;;;;0.40;0.40;;;17.10;99.90;;;;;;4978943;28;20026;-82
2023/10/14 07:28:23;;;;;;;0.47;0.35;;;17.00;99.90;;;;;;4967339;28;20057;-82
2023/10/14 07:30:49;;;;;;;0.70;0.47;;;17.00;99.90;;;;;;4982450;28;20057;-82
2023/10/14 07:33:16;;;;;;;0.38;0.30;;;17.00;99.90;;;;;;4986735;28;20051;-81
2023/10/14 07:35:43;;;;;;;1.90;0.60;;;16.90;99.90;;;;;;4958403;28;20322;-80
2023/10/14 07:38:10;;;;;;;1.63;0.60;;;16.80;99.90;;;;;;4970032;28;20030;-81
2023/10/14 07:40:36;;;;;;;1.30;0.40;;;16.50;99.90;;;;;;4971966;28;20039;-81
2023/10/14 07:43:13;;;;;;;1.33;0.50;;;16.60;99.90;;;;;;4958586;28;20043;-81
2023/10/14 07:45:46;;;;;;;0.93;0.40;;;16.60;99.90;;;;;;4966623;28;20061;-81
2023/10/14 07:48:13;;;;;;;1.17;0.73;;;16.50;99.90;;;;;;4962867;28;20110;-80
2023/10/14 07:50:42;;;;;;;0.95;0.60;;;16.50;99.90;;;;;;4982567;28;20042;-81
2023/10/14 07:53:12;;;;;;;1.65;0.65;;;16.70;99.90;;;;;;4985718;28;20035;-81
2023/10/14 07:55:49;;;;;;;2.80;0.80;;;16.80;99.90;;;;;;4993756;28;20038;-80
2023/10/14 07:58:25;;;;;;;1.42;0.70;;;16.80;99.90;;;;;;4998001;28;20034;-79
2023/10/14 08:00:52;;;;;;;2.10;0.60;;;16.80;99.90;;;;;;5002371;28;20022;-80
2023/10/14 08:03:20;;;;;;;1.58;0.75;;;16.80;99.90;;;;;;5009831;28;20030;-80
2023/10/14 08:05:52;;;;;;;2.10;0.90;;;16.90;99.90;;;;;;4992029;28;20495;-79
2023/10/14 08:08:19;;;;;;;3.20;0.75;;;16.90;99.90;;;;;;4989824;28;20085;-80
2023/10/14 08:10:48;;;;;;;3.05;0.80;;;16.70;99.90;;;;;;4996371;28;20012;-78
2023/10/14 08:13:21;;;;;;;2.28;0.90;;;16.70;99.90;;;;;;4987077;28;21527;-79
2023/10/14 08:15:50;;;;;;;3.50;1.08;;;16.60;99.90;;;;;;4992047;28;20042;-80
2023/10/14 08:18:16;;;;;;;1.23;0.70;;;16.60;99.90;;;;;;4980693;28;20110;-77
2023/10/14 08:20:43;;;;;;;1.58;0.75;;;16.50;99.90;;;;;;4985450;28;20042;-78
2023/10/14 08:23:10;;;;;;;1.33;0.60;;;16.40;99.90;;;;;;4986915;28;20034;-79
2023/10/14 08:25:37;;;;;;;2.15;0.68;;;16.40;99.90;;;;;;4985477;28;20038;-78
2023/10/14 08:28:05;;;;;;;2.05;0.70;;;16.30;99.90;;;;;;4989572;28;20893;-77
2023/10/14 08:30:45;;;;;;;4.15;1.00;;;16.30;99.90;;;;;;4995737;28;20387;-78
2023/10/14 08:33:11;;;;;;;3.40;0.90;;;16.30;99.90;;;;;;4981588;28;20459;-81
2023/10/14 08:35:41;;;;;;;5.47;1.00;;;16.40;99.90;;;;;;4980948;28;20030;-79
2023/10/14 08:38:11;;;;;;;2.75;1.10;;;16.30;99.90;;;;;;4970671;28;20486;-78
2023/10/14 08:40:37;;;;;;;2.75;1.10;;;16.30;99.90;;;;;;4977569;28;20042;-80
2023/10/14 08:43:07;;;;;;;2.85;1.00;;;16.40;99.90;;;;;;4975154;28;20030;-81
2023/10/14 08:45:38;;;;;;;;;;;16.50;99.90;;;;;;4981961;28;20034;-80
2023/10/14 08:48:15;;;;;;;2.58;0.93;;;16.50;99.90;;;;;;4990592;28;20004;-79
2023/10/14 08:50:41;;;;;;;2.83;1.17;;;16.50;99.90;;;;;;4975264;28;20545;-79
2023/10/14 08:53:15;;;;;;;3.17;1.20;;;16.50;99.90;;;;;;4973358;28;20081;-80
2023/10/14 08:55:46;;;;;;;3.70;1.00;;;16.40;99.90;;;;;;4974231;28;20482;-80
2023/10/14 08:58:15;;;;;;;4.30;1.17;;;16.30;99.90;;;;;;4986235;28;20092;-81
2023/10/14 09:00:43;;;;;;;4.55;1.25;;;16.20;99.90;;;;;;4975482;28;20055;-81
2023/10/14 09:03:10;;;;;;;2.80;1.23;;;16.30;99.90;;;;;;4979481;28;20109;-80
2023/10/14 09:05:40;;;;;;;4.82;1.33;;;16.10;99.90;;;;;;4993793;28;20435;-82
2023/10/14 09:08:08;;;;;;;3.35;1.60;;;16.10;99.90;;;;;;4976133;28;20052;-82
2023/10/14 09:10:36;;;;;;;5.50;1.63;;;16.20;99.90;;;;;;4976954;28;20565;-82
2023/10/14 09:13:05;;;;;;;3.72;1.70;;;16.10;99.90;;;;;;4975457;28;20034;-82
2023/10/14 09:15:36;;;;;;;5.95;1.88;;;16.20;99.90;;;;;;4989476;28;20102;-82
2023/10/14 09:18:02;;;;;;;5.18;1.95;;;16.20;99.90;;;;;;4970088;28;20357;-81
2023/10/14 09:20:38;;;;;;;4.78;2.10;;;16.20;99.90;;;;;;4973022;28;20133;-81
2023/10/14 09:23:15;;;;;;;4.95;1.50;;;16.20;99.90;;;;;;4980976;28;20054;-80
2023/10/14 09:25:52;;;;;;;4.45;1.70;;;16.10;99.90;;;;;;5003772;28;20034;-81
2023/10/14 09:28:22;;;;;;;6.72;2.10;;;16.20;99.90;;;;;;4983772;28;20141;-81
2023/10/14 09:30:49;;;;;;;5.93;2.03;;;16.10;99.90;;;;;;4977443;28;20038;-81
2023/10/14 09:33:22;;;;;;;8.55;2.05;;;16.00;99.90;;;;;;4987872;28;20026;-81
2023/10/14 09:35:49;;;;;;;6.97;1.67;;;15.80;99.90;;;;;;4981228;28;20223;-81
2023/10/14 09:38:22;;;;;;;5.43;2.13;;;15.90;99.90;;;;;;4987327;28;20053;-81
2023/10/14 09:40:57;;;;;;;4.22;1.25;;;16.00;99.90;;;;;;4982096;28;20027;-81
2023/10/14 09:43:27;;;;;;;8.10;1.60;;;16.10;99.90;;;;;;4986799;28;20395;-82
2023/10/14 09:45:57;;;;;;;5.55;1.85;;;16.20;99.90;;;;;;4999447;28;20023;-81
2023/10/14 09:48:25;;;;;;;7.85;2.70;;;16.30;99.90;;;;;;4982567;28;20027;-81
2023/10/14 09:50:54;;;;;;;8.02;2.13;;;16.50;99.90;;;;;;4982139;28;20026;-82
2023/10/14 09:53:26;;;;;;;9.77;2.20;;;16.70;99.90;;;;;;4982678;28;20026;-81
2023/10/14 09:55:53;;;;;;;12.10;2.00;;;16.70;99.90;;;;;;5000931;28;20301;-81
2023/10/14 09:58:23;;;;;;;7.07;1.77;;;16.80;99.90;;;;;;5005549;28;20114;-82
2023/10/14 10:00:49;;;;;;;7.57;2.03;;;16.80;99.90;;;;;;5002399;28;20108;-82
2023/10/14 10:03:15;;;;;;;8.43;2.00;;;16.60;99.90;;;;;;5007427;28;20022;-83
2023/10/14 10:05:59;;;;;;;9.57;2.17;;;16.50;99.90;;;;;;5011828;28;20039;-82
2023/10/14 10:08:43;;;;;;;6.47;1.60;;;16.50;99.90;;;;;;4991588;28;20034;-82
2023/10/14 10:11:10;;;;;;;8.45;1.65;;;16.60;99.90;;;;;;4999479;28;20102;-82
2023/10/14 10:13:39;;;;;;;6.70;1.50;;;16.60;99.90;;;;;;4982500;28;20510;-82
2023/10/14 10:16:05;;;;;;;7.72;1.73;;;16.60;99.90;;;;;;4996837;28;20034;-83
2023/10/14 10:18:52;;;;;;;6.97;1.75;;;16.70;99.90;;;;;;4992936;28;20125;-82
2023/10/14 10:21:19;;;;;;;6.15;1.33;;;16.60;99.90;;;;;;4992386;28;20038;-81
2023/10/14 10:23:49;;;;;;;8.18;2.15;;;16.60;99.90;;;;;;5003418;28;20030;-81
2023/10/14 10:26:17;;;;;;;5.05;1.42;;;16.60;99.90;;;;;;4994772;28;20085;-82
2023/10/14 10:28:45;;;;;;;6.38;1.90;;;16.80;99.90;;;;;;4993292;28;20051;-83
2023/10/14 10:31:16;;;;;;;4.57;1.40;;;17.10;99.90;;;;;;4988279;28;20098;-83
2023/10/14 10:33:55;;;;;;;5.25;1.55;;;17.60;99.00;;;;;;5005171;28;20041;-82
2023/10/14 10:36:29;;;;;;;6.00;1.95;;;17.80;98.30;;;;;;4991161;28;20102;-83
2023/10/14 10:39:05;;;;;;;6.45;1.83;;;17.90;98.20;;;;;;4988346;28;20042;-82
2023/10/14 10:41:36;;;;;;;8.65;2.20;;;18.10;98.20;;;;;;4990409;28;20031;-82
2023/10/14 10:44:05;;;;;;;8.93;2.08;;;18.20;97.80;;;;;;4988442;28;20030;-82
2023/10/14 10:46:42;;;;;;;6.22;1.83;;;18.10;97.70;;;;;;4981391;28;20049;-84
2023/10/14 10:49:11;;;;;;;6.03;1.83;;;17.80;97.50;;;;;;4991547;28;20161;-84
2023/10/14 10:52:09;;;;;;;6.53;2.13;;;17.60;97.20;;;;;;4988154;28;20079;-84
2023/10/14 10:54:36;;;;;;;8.55;2.38;;;17.50;97.20;;;;;;4986324;28;20030;-84
2023/10/14 10:57:02;;;;;;;6.75;2.00;;;17.30;97.40;;;;;;5004131;28;20038;-83
2023/10/14 10:59:29;;;;;;;5.57;2.00;;;17.20;98.00;;;;;;4985200;28;20045;-83
2023/10/14 11:01:56;;;;;;;5.85;1.98;;;17.20;98.00;;;;;;4974142;28;20042;-83
2023/10/14 11:04:22;;;;;;;12.38;2.75;;;17.10;98.10;;;;;;4988593;28;20033;-83
2023/10/14 11:06:51;;;;;;;6.30;1.92;;;17.10;98.30;;;;;;4971589;28;20852;-83
2023/10/14 11:09:17;;;;;;;8.38;2.45;;;17.20;98.10;;;;;;4973557;28;20034;-84
2023/10/14 11:11:43;;;;;;;5.70;1.80;;;17.30;97.80;;;;;;4973310;28;20034;-84
2023/10/14 11:14:20;;;;;;;8.13;2.08;;;17.20;97.80;;;;;;4969517;28;20064;-83
2023/10/14 11:16:53;;;;;;;9.82;1.98;;;17.00;97.50;;;;;;4972490;28;20117;-84
2023/10/14 11:19:21;;;;;;;10.48;2.10;;;16.80;98.30;;;;;;4972053;28;20030;-83
2023/10/14 11:21:51;;;;;;;5.13;2.00;;;16.70;98.40;;;;;;5001969;28;20370;-84
2023/10/14 11:24:18;;;;;;;7.53;2.80;;;16.80;98.60;;;;;;4990230;28;20021;-85
2023/10/14 11:26:45;;;;;;;9.32;2.10;;;16.80;98.70;;;;;;4977059;28;20073;-84
2023/10/14 11:29:11;;;;;;;5.20;1.60;;;17.10;98.50;;;;;;4985236;28;20026;-84
2023/10/14 11:31:40;;;;;;;8.93;1.80;;;17.00;97.80;;;;;;4973138;28;20039;-82
2023/10/14 11:34:06;;;;;;;4.68;1.83;;;17.10;97.90;;;;;;4974707;28;20340;-83
2023/10/14 11:36:32;;;;;;;11.68;3.05;;;16.90;97.00;;;;;;4989253;28;20034;-84
2023/10/14 11:38:58;;;;;;;7.35;2.05;;;16.90;97.30;;;;;;4968648;28;20383;-83
2023/10/14 11:41:27;;;;;;;5.13;1.75;;;17.00;97.50;;;;;;4969432;28;20033;-84
2023/10/14 11:43:54;;;;;;;8.73;2.70;;;17.00;98.10;;;;;;4964303;28;20442;-85
2023/10/14 11:46:20;;;;;;;5.97;1.75;;;17.10;97.90;;;;;;4970244;28;20054;-83
2023/10/14 11:48:47;;;;;;;7.50;1.83;;;17.30;98.00;;;;;;4990575;28;20032;-84
2023/10/14 11:51:20;;;;;;;4.70;1.88;;;17.30;97.60;;;;;;4972213;28;20141;-82
2023/10/14 11:53:50;;;;;;;6.32;1.90;;;17.20;97.50;;;;;;4981312;23;20046;-88
2023/10/14 11:56:17;;;;;;;5.57;1.60;;;17.20;97.60;;;;;;4994694;28;20117;-86
2023/10/14 11:58:43;;;;;;;5.50;1.85;;;17.30;97.00;;;;;;4993411;28;20121;-86
2023/10/14 12:01:09;;;;;;;7.93;1.58;;;17.60;96.70;;;;;;4994461;28;20113;-87
2023/10/14 12:03:36;;;;;;;7.07;1.70;;;17.50;96.80;;;;;;4992507;28;20014;-83
2023/10/14 12:06:03;;;;;;;4.03;1.55;;;17.60;97.00;;;;;;4990810;28;20035;-88
2023/10/14 12:08:36;;;;;;;8.90;1.73;;;17.80;96.60;;;;;;4989039;28;20042;-83
2023/10/14 12:11:03;;;;;;;16.25;3.90;;;17.70;96.20;;;;;;4994514;28;20070;-85
2023/10/14 12:13:29;;;;;;;5.93;1.80;;;17.70;96.50;;;;;;4995381;28;20022;-84
2023/10/14 12:15:55;;;;;;;6.50;1.40;;;18.00;96.00;;;;;;4990898;28;20080;-87
2023/10/14 12:18:20;;;;;;;6.72;1.77;;;17.80;96.10;;;;;;4995075;28;20050;-88
2023/10/14 12:20:48;;;;;;;4.43;1.33;;;18.10;95.90;;;;;;4992885;28;20085;-87
2023/10/14 12:23:20;;;;;;;5.57;1.65;;;17.80;94.70;;;;;;4994983;28;20038;-84
2023/10/14 12:25:49;;;;;;;4.07;1.40;;;17.90;95.00;;;;;;4992777;28;20026;-89
2023/10/14 12:28:24;;;;;;;7.22;1.23;;;17.90;94.90;;;;;;4996479;28;20025;-88
2023/10/14 12:30:51;;;;;;;5.30;1.30;;;17.90;94.90;;;;;;4991541;28;20027;-86
2023/10/14 12:33:20;;;;;;;4.45;1.20;;;18.00;94.90;;;;;;4988907;28;20082;-88
2023/10/14 12:35:51;;;;;;;8.00;1.38;;;18.10;94.70;;;;;;4992321;28;20030;-88
2023/10/14 12:38:22;;;;;;;;;;;18.10;94.30;;;;;;4994036;28;20394;-85
2023/10/14 12:40:49;;;;;;;4.43;1.60;;;18.10;94.50;;;;;;5002373;28;19909;-87
2023/10/14 12:43:27;;;;;;;6.30;1.60;;;17.90;94.00;;;;;;5007867;28;20078;-88
2023/10/14 12:46:19;;;;;;;9.35;2.22;;;17.90;94.00;;;;;;5004069;28;20014;-86
2023/10/14 12:48:46;;;;;;;3.83;1.27;;;17.80;94.40;;;;;;4999182;28;20022;-90
2023/10/14 12:51:25;;;;;;;5.13;1.50;;;17.80;94.00;;;;;;4992230;28;20034;-88
2023/10/14 12:53:57;;;;;;;4.22;1.60;;;17.80;94.40;;;;;;4998696;28;20061;-88
2023/10/14 12:56:26;;;;;;;7.20;1.50;;;17.80;95.10;;;;;;4989998;28;20030;-87
2023/10/14 12:58:52;;;;;;;6.07;1.25;;;17.60;94.40;;;;;;5014501;28;20038;-86
2023/10/14 13:01:19;;;;;;;4.95;1.40;;;17.50;94.60;;;;;;5015141;28;20041;-85
2023/10/14 13:03:53;;;;;;;3.92;1.27;;;17.30;94.50;;;;;;4998175;28;20027;-88
2023/10/14 13:06:23;;;;;;;4.65;1.13;;;17.20;94.30;;;;;;4995365;28;20117;-87
2023/10/14 13:08:59;;;;;;;5.40;1.52;;;17.20;94.60;;;;;;4992319;28;20042;-88
2023/10/14 13:11:30;;;;;;;5.40;1.98;;;17.40;94.50;;;;;;4992811;28;20031;-85
2023/10/14 13:13:57;;;;;;;2.80;1.00;;;17.40;94.40;;;;;;4994661;28;20030;-86
2023/10/14 13:16:25;;;;;;;4.25;1.10;;;17.40;94.80;;;;;;4995389;28;20470;-88
2023/10/14 13:18:56;;;;;;;4.57;1.45;;;17.40;94.50;;;;;;4994998;28;20030;-88
2023/10/14 13:21:28;;;;;;;5.07;1.15;;;17.40;94.30;;;;;;4991741;28;20228;-87
2023/10/14 13:23:55;;;;;;;3.38;0.93;;;17.50;94.40;;;;;;4995713;28;20026;-89